Etusivu
METAR-TAF:

METAR-TAF

Lentoasemat :

Dakar, Senegal

Leveyspiiri: 14-44N, Pituuspiiri: 017-30W, korkeus merenpinnasta: 27 m

Tämänhetkinen sää

Tämä raportti tehtiin 52 minuuttia sitten, kello 21.00 UTC
Tuuli 12 kn pohjoisesta
Lämpötila 22°C
Kosteus 60%
Ilmanpaine 1013 hPa
Näkyvyys: 7000 m

METAR: GOOY 122100Z 36012KT 7000 NSC 22/14 Q1013

Aika: 21:52 (21:52 UTC)

Sääennuste

Tämä raportti tehtiin 4 tuntia ja 22 minuuttia sitten, kello 17.30 UTC
Ennuste voimassa 12. päivästä klo 18 UTC - 13. päivään klo 24 UTC
Tuuli 13 kn pohjoisesta/koillisesta
Näkyvyys: 6000 m

TAF: GOOY 121730Z 1218/1324 02013KT 6000 NSC

Säähavainnot ja -ennusteet yli 4000 lentoasemalta (METAR- ja TAF-raportit).

Käytössä olevat sääasemat on merkitty karttaan keltaisilla ja punaisilla pisteillä.

Aseta hiiri pisteen päälle nähdäksesi sääaseman nimen.

Klikkaa sitten nähdäksesi säähavainnot ja -ennusteet.

Kartan vaihtaminen: klikkaa mustalla rastilla varustettuja vihreitä pisteitä, niin voit zoomata sisään; viivalla varustettua vihreää pistettä, niin voit zoomata ulos tai vihreitä nuolia, niin pääset viereisille kartoille.


METAR-TAF: